Terminal Aerodrome Forecast
Issued by NWS Louisville, KY

Home | Current Version | Previous Version | Text Only | Print | Product List | Glossary On
Versions: 1 2 3 4 5 6 7 8 9 10 11 12 13 14 15
000
FTUS43 KLMK 260100 AAA
TAFBWG
TAF AMD
KBWG 260112Z 2601/2624 31012KT P6SM VCTS BKN035CB
      TEMPO 2601/2602 3SM TSRA BR BKN020CB
     FM260400 30012KT P6SM VCSH BKN020
     FM260700 34007KT 5SM BR OVC009
     FM261900 36009KT P6SM BKN015=

USA.gov is the U.S. government's official web portal to all federal, state and local government web resources and services.